• Join FlightAware (Why Join?)
  • Login
  • US Flag 
01:12AM EDT


 

Airport Tracker/Info


-or-


 

Live Flight TrackerFlight Track Log ✈ GJS6221 ✈ 24-Apr-2013 ✈ KBTV - KLGA

Flight Track Log - Related Links

Times and Time Zones

All times are in EDT time to prevent confusion due to time zone crossing. See the GJS6221 flight status page for this flight to view local times or setup timezone preferences in your user account.

Time Position Orientation Groundspeed Altitude Reporting Facility
EDT Latitude Longitude Course Direction KTS MPH feet Rate Location/Type
02:23PM 44.3819 -73.1489 196° South 200 230 6,600  Level Boston Center
02:24PM 44.3297 -73.1686 195° South 200 230 9,300 2,040 Climbing Boston Center
02:25PM 44.2650 -73.1967 197° South 228 262 10,700 1,620 Climbing Boston Center
02:26PM 44.1858 -73.2275 196° South 277 319 12,600 2,100 Climbing Boston Center
02:27PM 44.1000 -73.2639 197° South 312 359 14,900 2,100 Climbing Boston Center
02:28PM 43.9287 -73.3552 196° South  Level FlightAware Approximate
02:28PM 44.0103 -73.3003 196° South 336 387 16,900  Level Boston Center
02:29PM 43.9139 -73.3392 196° South 354 407 19,100 1,920 Climbing Boston Center
02:30PM 43.8158 -73.3808 197° South 360 414 20,800 1,800 Climbing Boston Center
02:31PM 43.7153 -73.4225 197° South 367 422 22,800 1,740 Climbing Boston Center
02:32PM 43.6108 -73.4608 195° South 373 429 24,300 1,440 Climbing Boston Center
02:33PM 43.5064 -73.4992 195° South 384 442 25,700 840 Climbing Boston Center
02:34PM 43.3994 -73.5458 198° South 397 457 26,000 120 Climbing Boston Center
02:35PM 43.2908 -73.5897 196° South 403 464 26,000 -300 Level Boston Center
02:36PM 43.1842 -73.6303 195° South 403 464 25,500 -600 Descending Boston Center
02:37PM 43.0878 -73.6711 197° South 403 464 24,900 -600 Descending Boston Center
02:38PM 42.9853 -73.7117 196° South 403 464 24,400 -540 Descending Boston Center
02:39PM 42.8806 -73.7547 197° South 403 464 23,900 -540 Descending Boston Center
02:40PM 42.7781 -73.7922 195° South 397 457 23,400 -780 Descending Boston Center
02:41PM 42.6656 -73.7869 178° South 397 457 22,400 -1,080 Descending Boston Center
02:42PM 42.5511 -73.7675 173° South 383 441 21,300 -1,080 Descending Boston Center
02:43PM 42.4469 -73.7456 171° South 383 441 20,300 -1,020 Descending Boston Center
02:44PM 42.3431 -73.7239 171° South 383 441 19,300 -660 Descending Boston Center
02:45PM 42.2433 -73.7022 171° South 383 441 19,000 -180 Descending Boston Center
02:46PM 42.1456 -73.6806 171° South 371 427 19,000  Level Boston Center
02:47PM 42.0478 -73.6592 171° South 366 421 19,000 -360 Level Boston Center
02:48PM 41.9583 -73.6406 171° South 366 421 18,300 -1,200 Descending Boston Center
02:49PM 41.8544 -73.6164 170° South 361 415 16,600 -1,560 Descending Boston Center
02:50PM 41.7647 -73.6258 184° South 339 390 15,200 -1,320 Descending Boston Center
02:51PM 41.7181 -73.7167 235° Southwest 290 334 14,000 -600 Descending Boston Center
02:52PM 41.6794 -73.7908 235° Southwest 263 303 14,000  Level Boston Center
02:53PM 41.6269 -73.8314 210° Southwest 222 255 14,000  Level Boston Center
02:54PM 41.5622 -73.8494 192° South 228 262 14,000  Level Boston Center
02:55PM 41.4972 -73.8675 192° South 243 280 14,000  Level Boston Center
02:56PM 41.4283 -73.8853 191° South 243 280 14,000  Level Boston Center
02:57PM 41.4025 -73.9456 240° Southwest 195 224 14,000 -420 Level Boston Center
02:58PM 41.4519 -73.9828 331° Northwest 158 182 13,200 -540 Descending Boston Center
02:59PM 41.5253 -73.9650 10° North 216 249 13,000 -120 Descending Boston Center
03:00PM 41.5942 -73.9500 North 241 277 13,000  Level Boston Center
03:01PM 41.6492 -73.8931 38° Northeast 247 284 13,000  Level Boston Center
03:02PM 41.5997 -73.8419 142° Southeast 141 162 13,000  Level Boston Center
03:03PM 41.5286 -73.8597 191° South 139 160 13,000  Level Boston Center
03:04PM 41.4700 -73.8753 191° South 206 237 13,000  Level Boston Center
03:05PM 41.4050 -73.9069 200° South 241 277 13,000  Level Boston Center
03:06PM 41.4106 -73.9733 276° West 185 213 13,000  Level Boston Center
03:07PM 41.4792 -73.9806 355° North 144 166 13,000  Level Boston Center
03:08PM 41.5419 -73.9656 10° North 211 243 13,000  Level Boston Center
03:09PM 41.6192 -73.9453 11° North 250 288 13,000  Level Boston Center
03:10PM 41.6514 -73.8736 59° Northeast 231 266 13,000  Level Boston Center
03:11PM 41.5892 -73.8444 161° South 166 191 13,000  Level Boston Center
03:12PM 41.5308 -73.8600 191° South 212 244 13,000  Level Boston Center
03:13PM 41.4597 -73.8778 191° South 244 281 13,000  Level Boston Center
03:14PM 41.4072 -73.9042 201° Southwest 233 268 13,000  Level Boston Center
03:15PM 41.4189 -73.9764 282° West 172 198 13,000  Level Boston Center
03:16PM 41.4792 -73.9750 North 155 178 13,000  Level Boston Center
03:17PM 41.5544 -73.9575 10° North 197 227 13,000  Level Boston Center
03:18PM 41.6172 -73.9422 10° North 238 274 13,000  Level Boston Center
03:19PM 41.6414 -73.8511 70° East 219 252 13,000  Level Boston Center
03:20PM 41.5850 -73.8444 175° South 152 175 13,000  Level Boston Center
03:21PM 41.5142 -73.8622 191° South 220 253 13,000  Level Boston Center
03:22PM 41.4556 -73.8775 191° South 235 270 13,000  Level Boston Center
03:23PM 41.3986 -73.9206 210° Southwest 220 253 13,000  Level Boston Center
03:24PM 41.4272 -73.9739 306° West 156 180 13,000 -540 Level Boston Center
03:25PM 41.5000 -73.9700 North 174 200 12,000 -540 Descending Boston Center
03:26PM 41.5628 -73.9522 12° North 230 265 12,000 -180 Level Boston Center
03:27PM 41.6361 -73.9261 15° North 247 284 11,700 -540 Descending Boston Center
03:28PM 41.6414 -73.8539 84° East 230 265 11,000 -480 Descending Boston Center
03:29PM 41.5642 -73.8494 178° South 172 198 10,800 -360 Descending Boston Center
03:29PM 41.5500 -73.8500 182° South 234 269 10,600 -1,140 Descending New York TRACON
03:30PM 41.4833 -73.8667 191° South 231 266 9,400 -840 Descending New York TRACON
03:31PM 41.4167 -73.8833 191° South 227 261 9,000 -780 Descending New York TRACON
03:32PM 41.3667 -73.8333 143° Southeast 253 291 7,900 -1,200 Descending New York TRACON
03:33PM 41.3167 -73.7667 135° Southeast 243 280 6,700 -1,200 Descending New York TRACON
03:34PM 41.2667 -73.7167 143° Southeast 229 264 5,500 -900 Descending New York TRACON
03:35PM 41.2167 -73.6833 153° Southeast 223 257 5,000 -600 Descending New York TRACON
03:36PM 41.1500 -73.6500 159° South 211 243 4,400 -540 Descending New York TRACON
03:37PM 41.1000 -73.6500 180° South 206 237 4,000 -240 Descending New York TRACON
03:38PM 41.0500 -73.6667 194° South 206 237 4,000  Level New York TRACON